createdAt,value
2017-03-26T00:00:19.236Z,1018.52
2017-03-26T00:01:20.475Z,1018.52
2017-03-26T00:02:21.706Z,1018.47
2017-03-26T00:03:22.994Z,1018.45
2017-03-26T00:04:24.234Z,1018.44
2017-03-26T00:05:25.501Z,1018.4
2017-03-26T00:06:26.769Z,1018.41
2017-03-26T00:07:28.012Z,1018.39
2017-03-26T00:08:29.242Z,1018.43
2017-03-26T00:09:30.484Z,1018.43
2017-03-26T00:10:31.728Z,1018.43
2017-03-26T00:11:32.987Z,1018.46
2017-03-26T00:12:34.234Z,1018.45
2017-03-26T00:13:35.590Z,1018.44
2017-03-26T00:14:36.886Z,1018.44
2017-03-26T00:15:38.129Z,1018.36
2017-03-26T00:16:39.379Z,1018.3
2017-03-26T00:17:40.606Z,1018.24
2017-03-26T00:18:41.847Z,1018.23
2017-03-26T00:19:43.097Z,1018.17
2017-03-26T00:20:44.372Z,1018.15
2017-03-26T00:21:45.689Z,1018.14
2017-03-26T00:22:46.921Z,1018.06
2017-03-26T00:23:48.153Z,1018.07
2017-03-26T00:24:49.394Z,1018.06
2017-03-26T00:25:50.632Z,1018.03
2017-03-26T00:26:51.887Z,1018.01
2017-03-26T00:27:53.093Z,1017.99
2017-03-26T00:28:54.352Z,1017.97
2017-03-26T00:29:55.597Z,1017.99
2017-03-26T00:30:56.831Z,1018.02
2017-03-26T00:31:58.050Z,1018.05
2017-03-26T00:32:59.337Z,1018.07
2017-03-26T00:34:00.558Z,1018.08
2017-03-26T00:35:01.853Z,1018.02
2017-03-26T00:36:03.101Z,1018
2017-03-26T00:37:04.350Z,1018
2017-03-26T00:38:05.634Z,1018
2017-03-26T00:39:06.869Z,1018.04
2017-03-26T00:40:08.204Z,1018.04
2017-03-26T00:41:09.464Z,1018.06
2017-03-26T00:42:10.675Z,1018.08
2017-03-26T00:43:11.912Z,1018.12
2017-03-26T00:44:13.152Z,1018.11
2017-03-26T00:45:14.390Z,1018.2
2017-03-26T00:46:15.642Z,1018.28
2017-03-26T00:47:16.887Z,1018.34
2017-03-26T00:48:18.129Z,1018.35
2017-03-26T00:49:19.435Z,1018.38
2017-03-26T00:50:20.667Z,1018.42
2017-03-26T00:51:21.965Z,1018.41
2017-03-26T00:52:23.262Z,1018.4
2017-03-26T00:53:24.503Z,1018.39
2017-03-26T00:54:25.796Z,1018.41
2017-03-26T00:55:27.031Z,1018.39
2017-03-26T00:56:28.269Z,1018.33
2017-03-26T00:57:29.548Z,1018.29
2017-03-26T00:58:30.784Z,1018.25
2017-03-26T00:59:32.129Z,1018.23
2017-03-26T01:00:33.367Z,1018.22
2017-03-26T01:01:34.598Z,1018.23
2017-03-26T01:02:35.856Z,1018.18
2017-03-26T01:03:37.085Z,1018.18
2017-03-26T01:04:38.312Z,1018.16
2017-03-26T01:05:39.668Z,1018.18
2017-03-26T01:06:40.913Z,1018.18
2017-03-26T01:07:42.153Z,1018.16
2017-03-26T01:08:43.411Z,1018.16
2017-03-26T01:09:44.640Z,1018.16
2017-03-26T01:10:45.872Z,1018.16
2017-03-26T01:11:47.158Z,1018.11
2017-03-26T01:12:48.389Z,1018.1
2017-03-26T01:13:49.749Z,1018.11
2017-03-26T01:14:51.003Z,1018.14
2017-03-26T01:15:52.245Z,1018.13
2017-03-26T01:16:53.493Z,1018.15
2017-03-26T01:17:54.729Z,1018.15
2017-03-26T01:18:56.063Z,1018.21
2017-03-26T01:19:57.272Z,1018.17
2017-03-26T01:20:58.529Z,1018.17
2017-03-26T01:21:59.788Z,1018.2
2017-03-26T01:23:01.001Z,1018.16
2017-03-26T01:24:02.240Z,1018.2
2017-03-26T01:25:03.553Z,1018.2
2017-03-26T01:26:04.790Z,1018.2
2017-03-26T01:27:05.993Z,1018.23
2017-03-26T01:28:07.234Z,1018.17
2017-03-26T01:29:08.473Z,1018.16
2017-03-26T01:30:09.784Z,1018.13
2017-03-26T01:31:11.167Z,1018.14
2017-03-26T01:32:12.422Z,1018.09
2017-03-26T01:33:13.662Z,1018.1
2017-03-26T01:34:14.904Z,1018.11
2017-03-26T01:35:16.249Z,1018.05
2017-03-26T01:36:17.588Z,1018.03
2017-03-26T01:37:18.850Z,1017.97
2017-03-26T01:38:20.081Z,1017.94
2017-03-26T01:39:21.327Z,1017.96
2017-03-26T01:40:22.556Z,1017.99
2017-03-26T01:41:23.792Z,1017.94
2017-03-26T01:42:25.032Z,1017.96
2017-03-26T01:43:26.335Z,1018.09
2017-03-26T01:44:27.572Z,1018.06
2017-03-26T01:45:28.804Z,1018.1
2017-03-26T01:46:30.041Z,1018.08
2017-03-26T01:47:31.294Z,1018.11
2017-03-26T01:48:32.537Z,1018.13
2017-03-26T01:49:33.788Z,1018.12
2017-03-26T01:50:35.047Z,1018.11
2017-03-26T01:51:36.284Z,1018.12
2017-03-26T01:52:37.582Z,1018.15
2017-03-26T01:53:38.825Z,1018.18
2017-03-26T01:54:40.145Z,1018.1
2017-03-26T01:55:41.424Z,1018.11
2017-03-26T01:56:42.673Z,1018.07
2017-03-26T01:57:43.918Z,1018.04
2017-03-26T01:58:45.142Z,1018.02
2017-03-26T01:59:46.380Z,1018.03
2017-03-26T02:00:47.613Z,1018.06
2017-03-26T02:01:48.889Z,1018.01
2017-03-26T02:02:50.109Z,1017.96
2017-03-26T02:03:51.458Z,1017.96
2017-03-26T02:04:52.689Z,1017.92
2017-03-26T02:05:53.938Z,1017.96
2017-03-26T02:06:55.183Z,1017.91
2017-03-26T02:07:56.481Z,1017.9
2017-03-26T02:08:57.722Z,1017.88
2017-03-26T02:09:59.009Z,1017.92
2017-03-26T02:11:00.271Z,1017.91
2017-03-26T02:12:01.530Z,1017.9
2017-03-26T02:13:02.748Z,1017.95
2017-03-26T02:14:03.989Z,1017.92
2017-03-26T02:15:05.227Z,1017.94
2017-03-26T02:16:06.457Z,1017.92
2017-03-26T02:17:07.762Z,1017.9
2017-03-26T02:18:09.048Z,1017.87
2017-03-26T02:19:10.304Z,1017.91
2017-03-26T02:20:11.546Z,1017.91
2017-03-26T02:21:12.772Z,1017.93
2017-03-26T02:22:14.033Z,1017.92
2017-03-26T02:23:15.316Z,1017.87
2017-03-26T02:24:16.517Z,1017.85
2017-03-26T02:25:17.758Z,1017.85
2017-03-26T02:26:18.992Z,1017.89
2017-03-26T02:27:20.240Z,1017.95
2017-03-26T02:28:21.489Z,1017.88
2017-03-26T02:29:22.754Z,1017.83
2017-03-26T02:30:24.003Z,1017.82
2017-03-26T02:31:25.226Z,1017.82
2017-03-26T02:32:26.473Z,1017.81
2017-03-26T02:33:27.691Z,1017.84
2017-03-26T02:34:28.929Z,1017.83
2017-03-26T02:35:30.171Z,1017.81
2017-03-26T02:36:31.392Z,1017.81
2017-03-26T02:37:32.629Z,1017.8
2017-03-26T02:38:33.870Z,1017.83
2017-03-26T02:39:35.098Z,1017.83
2017-03-26T02:40:36.366Z,1017.83
2017-03-26T02:41:37.637Z,1017.85
2017-03-26T02:42:38.864Z,1017.86
2017-03-26T02:43:40.118Z,1017.9
2017-03-26T02:44:41.389Z,1017.94
2017-03-26T02:45:42.610Z,1017.97
2017-03-26T02:46:43.854Z,1018.01
2017-03-26T02:47:45.090Z,1018.01
2017-03-26T02:48:46.345Z,1018.02
2017-03-26T02:49:47.619Z,1018.05
2017-03-26T02:50:48.862Z,1018.01
2017-03-26T02:51:50.124Z,1018.06
2017-03-26T02:52:51.360Z,1018.08
2017-03-26T02:53:52.579Z,1018.08
2017-03-26T02:54:53.878Z,1018.02
2017-03-26T02:55:55.115Z,1018.03
2017-03-26T02:56:56.357Z,1018.02
2017-03-26T02:57:57.662Z,1017.98
2017-03-26T02:58:58.872Z,1017.99
2017-03-26T03:00:00.119Z,1018
2017-03-26T03:01:01.368Z,1018.01
2017-03-26T03:02:02.604Z,1017.99
2017-03-26T03:03:04.053Z,1017.98
2017-03-26T03:04:05.290Z,1017.94
2017-03-26T03:05:06.516Z,1017.97
2017-03-26T03:06:07.768Z,1017.98
2017-03-26T03:07:08.976Z,1017.98
2017-03-26T03:08:10.217Z,1017.98
2017-03-26T03:09:11.457Z,1017.96
2017-03-26T03:10:12.694Z,1017.96
2017-03-26T03:11:13.932Z,1017.97
2017-03-26T03:12:15.171Z,1017.97
2017-03-26T03:13:16.434Z,1017.9
2017-03-26T03:14:17.799Z,1017.89
2017-03-26T03:15:19.050Z,1017.88
2017-03-26T03:16:20.287Z,1017.91
2017-03-26T03:17:21.532Z,1017.93
2017-03-26T03:18:22.765Z,1017.91
2017-03-26T03:19:24.034Z,1017.9
2017-03-26T03:20:25.298Z,1017.89
2017-03-26T03:21:26.524Z,1017.85
2017-03-26T03:22:27.836Z,1017.82
2017-03-26T03:23:29.113Z,1017.79
2017-03-26T03:24:30.343Z,1017.73
2017-03-26T03:25:31.602Z,1017.72
2017-03-26T03:26:32.819Z,1017.71
2017-03-26T03:27:34.067Z,1017.73
2017-03-26T03:28:35.322Z,1017.71
2017-03-26T03:29:36.555Z,1017.75
2017-03-26T03:30:37.790Z,1017.73
2017-03-26T03:31:39.029Z,1017.71
2017-03-26T03:32:40.272Z,1017.7
2017-03-26T03:33:41.507Z,1017.73
2017-03-26T03:34:42.740Z,1017.7
2017-03-26T03:35:44.001Z,1017.71
2017-03-26T03:36:45.213Z,1017.71
2017-03-26T03:37:46.449Z,1017.68
2017-03-26T03:38:47.688Z,1017.72
2017-03-26T03:39:48.938Z,1017.74
2017-03-26T03:40:50.178Z,1017.68
2017-03-26T03:41:51.473Z,1017.67
2017-03-26T03:42:52.706Z,1017.67
2017-03-26T03:43:53.965Z,1017.69
2017-03-26T03:44:55.196Z,1017.68
2017-03-26T03:45:56.435Z,1017.66
2017-03-26T03:46:57.725Z,1017.64
2017-03-26T03:47:58.965Z,1017.7
2017-03-26T03:49:00.192Z,1017.68
2017-03-26T03:50:01.425Z,1017.68
2017-03-26T03:51:02.658Z,1017.68
2017-03-26T03:52:03.885Z,1017.7
2017-03-26T03:53:05.138Z,1017.73
2017-03-26T03:54:06.485Z,1017.78
2017-03-26T03:55:07.736Z,1017.81
2017-03-26T03:56:08.966Z,1017.78
2017-03-26T03:57:10.211Z,1017.77
2017-03-26T03:58:11.442Z,1017.76
2017-03-26T03:59:12.682Z,1017.77
2017-03-26T04:00:13.930Z,1017.79
2017-03-26T04:01:15.251Z,1017.82
2017-03-26T04:02:16.521Z,1017.81
2017-03-26T04:03:17.740Z,1017.8
2017-03-26T04:04:19.010Z,1017.81
2017-03-26T04:05:20.301Z,1017.79
2017-03-26T04:06:21.596Z,1017.81
2017-03-26T04:07:22.817Z,1017.82
2017-03-26T04:08:24.067Z,1017.91
2017-03-26T04:09:25.322Z,1017.83
2017-03-26T04:10:26.536Z,1017.81
2017-03-26T04:11:27.775Z,1017.8
2017-03-26T04:12:29.012Z,1017.81
2017-03-26T04:13:30.347Z,1017.76
2017-03-26T04:14:31.660Z,1017.8
2017-03-26T04:15:32.908Z,1017.87
2017-03-26T04:16:34.160Z,1017.85
2017-03-26T04:17:35.373Z,1017.88
2017-03-26T04:18:36.658Z,1017.88
2017-03-26T04:19:38.024Z,1017.87
2017-03-26T04:20:39.353Z,1017.88
2017-03-26T04:21:40.572Z,1017.83
2017-03-26T04:22:41.812Z,1017.81
2017-03-26T04:23:43.045Z,1017.83
2017-03-26T04:24:44.334Z,1017.87
2017-03-26T04:25:45.808Z,1017.81
2017-03-26T04:26:47.175Z,1017.8
2017-03-26T04:27:48.401Z,1017.83
2017-03-26T04:28:49.630Z,1017.8
2017-03-26T04:29:50.883Z,1017.83
2017-03-26T04:30:52.104Z,1017.83
2017-03-26T04:31:53.340Z,1017.86
2017-03-26T04:32:54.581Z,1017.84
2017-03-26T04:33:55.817Z,1017.84
2017-03-26T04:34:57.072Z,1017.81
2017-03-26T04:35:58.313Z,1017.83
2017-03-26T04:36:59.577Z,1017.89
2017-03-26T04:38:00.931Z,1017.85
2017-03-26T04:39:02.189Z,1017.78
2017-03-26T04:40:03.448Z,1017.77
2017-03-26T04:41:04.681Z,1017.76
2017-03-26T04:42:05.918Z,1017.68
2017-03-26T04:43:07.195Z,1017.67
2017-03-26T04:44:08.418Z,1017.68
2017-03-26T04:45:09.695Z,1017.64
2017-03-26T04:46:10.969Z,1017.63
2017-03-26T04:47:12.205Z,1017.66
2017-03-26T04:48:13.434Z,1017.65
2017-03-26T04:49:14.691Z,1017.67
2017-03-26T04:50:16.009Z,1017.64
2017-03-26T04:51:17.241Z,1017.67
2017-03-26T04:52:18.472Z,1017.7
2017-03-26T04:53:19.728Z,1017.7
2017-03-26T04:54:20.954Z,1017.75
2017-03-26T04:55:22.189Z,1017.78
2017-03-26T04:56:23.426Z,1017.76
2017-03-26T04:57:24.691Z,1017.74
2017-03-26T04:58:26.070Z,1017.75
2017-03-26T04:59:27.325Z,1017.71
2017-03-26T05:00:28.568Z,1017.7
2017-03-26T05:01:29.801Z,1017.67
2017-03-26T05:02:31.032Z,1017.64
2017-03-26T05:03:32.284Z,1017.65
2017-03-26T05:04:33.618Z,1017.63
2017-03-26T05:05:35.006Z,1017.62
2017-03-26T05:06:36.224Z,1017.59
2017-03-26T05:07:37.458Z,1017.59
2017-03-26T05:08:38.686Z,1017.58
2017-03-26T05:09:40.036Z,1017.54
2017-03-26T05:10:41.287Z,1017.56
2017-03-26T05:11:42.526Z,1017.6
2017-03-26T05:12:43.768Z,1017.59
2017-03-26T05:13:45.007Z,1017.61
2017-03-26T05:14:46.335Z,1017.61
2017-03-26T05:15:47.632Z,1017.6
2017-03-26T05:16:48.874Z,1017.59
2017-03-26T05:17:50.110Z,1017.6
2017-03-26T05:18:51.350Z,1017.62
2017-03-26T05:19:52.578Z,1017.59
2017-03-26T05:20:53.854Z,1017.62
2017-03-26T05:21:55.104Z,1017.65
2017-03-26T05:22:56.338Z,1017.63
2017-03-26T05:23:57.685Z,1017.67
2017-03-26T05:24:58.916Z,1017.64
2017-03-26T05:26:00.175Z,1017.67
2017-03-26T05:27:01.415Z,1017.66
2017-03-26T05:28:02.739Z,1017.68
2017-03-26T05:29:04.020Z,1017.67
2017-03-26T05:30:05.264Z,1017.68
2017-03-26T05:31:06.500Z,1017.72
2017-03-26T05:32:07.739Z,1017.7
2017-03-26T05:33:08.969Z,1017.72
2017-03-26T05:34:10.278Z,1017.74
2017-03-26T05:35:11.609Z,1017.72
2017-03-26T05:36:12.854Z,1017.74
2017-03-26T05:37:14.083Z,1017.72
2017-03-26T05:38:15.442Z,1017.7
2017-03-26T05:39:16.664Z,1017.69
2017-03-26T05:40:17.914Z,1017.72
2017-03-26T05:41:19.151Z,1017.72
2017-03-26T05:42:20.379Z,1017.74
2017-03-26T05:43:21.627Z,1017.82
2017-03-26T05:44:22.863Z,1017.81
2017-03-26T05:45:24.098Z,1017.87
2017-03-26T05:46:25.338Z,1017.95
2017-03-26T05:47:26.632Z,1017.94
2017-03-26T05:48:27.948Z,1017.98
2017-03-26T05:49:29.192Z,1018.07
2017-03-26T05:50:30.433Z,1018.03
2017-03-26T05:51:31.663Z,1018.12
2017-03-26T05:52:32.915Z,1018.15
2017-03-26T05:53:34.151Z,1018.13
2017-03-26T05:54:35.454Z,1018.13
2017-03-26T05:55:36.688Z,1018.15
2017-03-26T05:56:37.957Z,1018.16
2017-03-26T05:57:39.199Z,1018.18
2017-03-26T05:58:40.431Z,1018.12
2017-03-26T05:59:41.668Z,1018.17
2017-03-26T06:00:42.907Z,1018.14
2017-03-26T06:01:44.244Z,1018.11
2017-03-26T06:02:45.505Z,1018.14
2017-03-26T06:03:46.743Z,1018.11
2017-03-26T06:04:47.985Z,1018.16
2017-03-26T06:05:49.212Z,1018.18
2017-03-26T06:06:50.449Z,1018.15
2017-03-26T06:07:51.790Z,1018.23
2017-03-26T06:08:53.075Z,1018.23
2017-03-26T06:09:54.308Z,1018.28
2017-03-26T06:10:55.539Z,1018.2
2017-03-26T06:11:56.816Z,1018.27
2017-03-26T06:12:58.068Z,1018.25
2017-03-26T06:13:59.398Z,1018.29
2017-03-26T06:15:00.587Z,1018.31
2017-03-26T06:16:01.824Z,1018.32
2017-03-26T06:17:03.081Z,1018.31
2017-03-26T06:18:04.323Z,1018.31
2017-03-26T06:19:05.543Z,1018.29
2017-03-26T06:20:06.795Z,1018.27
2017-03-26T06:21:08.029Z,1018.29
2017-03-26T06:22:09.290Z,1018.29
2017-03-26T06:23:10.499Z,1018.26
2017-03-26T06:24:11.760Z,1018.27
2017-03-26T06:25:12.992Z,1018.26
2017-03-26T06:26:14.351Z,1018.25
2017-03-26T06:27:15.592Z,1018.24
2017-03-26T06:28:16.854Z,1018.27
2017-03-26T06:29:18.079Z,1018.25
2017-03-26T06:30:19.440Z,1018.28
2017-03-26T06:31:20.667Z,1018.27
2017-03-26T06:32:21.899Z,1018.32
2017-03-26T06:33:23.218Z,1018.31
2017-03-26T06:34:24.472Z,1018.33
2017-03-26T06:35:25.678Z,1018.38
2017-03-26T06:36:26.917Z,1018.34
2017-03-26T06:37:28.173Z,1018.38
2017-03-26T06:38:29.391Z,1018.34
2017-03-26T06:39:30.654Z,1018.4
2017-03-26T06:40:31.947Z,1018.4
2017-03-26T06:41:33.252Z,1018.41
2017-03-26T06:42:34.508Z,1018.37
2017-03-26T06:43:35.730Z,1018.37
2017-03-26T06:44:36.983Z,1018.37
2017-03-26T06:45:38.209Z,1018.38
2017-03-26T06:46:39.547Z,1018.44
2017-03-26T06:47:40.797Z,1018.44
2017-03-26T06:48:42.050Z,1018.44
2017-03-26T06:49:43.306Z,1018.46
2017-03-26T06:50:44.645Z,1018.45
2017-03-26T06:51:45.908Z,1018.42
2017-03-26T06:52:47.179Z,1018.41
2017-03-26T06:53:48.414Z,1018.45
2017-03-26T06:54:49.687Z,1018.42
2017-03-26T06:55:50.951Z,1018.41
2017-03-26T06:56:52.163Z,1018.43
2017-03-26T06:57:53.401Z,1018.46
2017-03-26T06:58:54.668Z,1018.43
2017-03-26T06:59:55.918Z,1018.46
2017-03-26T07:00:57.321Z,1018.41
2017-03-26T07:01:58.592Z,1018.46
2017-03-26T07:02:59.854Z,1018.41
2017-03-26T07:04:01.117Z,1018.45
2017-03-26T07:05:02.343Z,1018.46
2017-03-26T07:06:03.611Z,1018.43
2017-03-26T07:07:04.830Z,1018.47
2017-03-26T07:08:06.050Z,1018.51
2017-03-26T07:09:07.281Z,1018.57
2017-03-26T07:10:08.536Z,1018.57
2017-03-26T07:11:09.868Z,1018.6
2017-03-26T07:12:11.133Z,1018.62
2017-03-26T07:13:12.418Z,1018.67
2017-03-26T07:14:13.635Z,1018.61
2017-03-26T07:15:14.878Z,1018.59
2017-03-26T07:16:16.134Z,1018.57
2017-03-26T07:17:17.468Z,1018.58
2017-03-26T07:18:18.740Z,1018.68
2017-03-26T07:19:19.972Z,1018.63
2017-03-26T07:20:21.212Z,1018.64
2017-03-26T07:21:22.471Z,1018.59
2017-03-26T07:22:23.802Z,1018.58
2017-03-26T07:23:25.055Z,1018.66
2017-03-26T07:24:26.347Z,1018.59
2017-03-26T07:25:27.570Z,1018.59
2017-03-26T07:26:28.841Z,1018.55
2017-03-26T07:27:30.063Z,1018.56
2017-03-26T07:28:31.311Z,1018.6
2017-03-26T07:29:32.684Z,1018.64
2017-03-26T07:30:34.000Z,1018.65
2017-03-26T07:31:35.225Z,1018.63
2017-03-26T07:32:36.470Z,1018.59
2017-03-26T07:33:37.712Z,1018.63
2017-03-26T07:34:38.994Z,1018.69
2017-03-26T07:35:40.219Z,1018.69
2017-03-26T07:36:41.466Z,1018.73
2017-03-26T07:37:42.706Z,1018.7
2017-03-26T07:38:43.967Z,1018.75
2017-03-26T07:39:45.207Z,1018.75
2017-03-26T07:40:46.478Z,1018.73
2017-03-26T07:41:47.826Z,1018.76
2017-03-26T07:42:49.066Z,1018.75
2017-03-26T07:43:50.381Z,1018.72
2017-03-26T07:44:51.735Z,1018.7
2017-03-26T07:45:53.026Z,1018.75
2017-03-26T07:46:54.274Z,1018.79
2017-03-26T07:47:55.531Z,1018.84
2017-03-26T07:48:56.768Z,1018.86
2017-03-26T07:49:58.017Z,1018.78
2017-03-26T07:50:59.333Z,1018.86
2017-03-26T07:52:00.592Z,1018.9
2017-03-26T07:53:01.832Z,1018.91
2017-03-26T07:54:03.058Z,1018.94
2017-03-26T07:55:04.431Z,1018.98
2017-03-26T07:56:05.710Z,1018.98
2017-03-26T07:57:06.934Z,1018.91
2017-03-26T07:58:08.179Z,1018.94
2017-03-26T07:59:09.432Z,1018.93
2017-03-26T08:00:10.765Z,1018.91
2017-03-26T08:01:12.057Z,1018.95
2017-03-26T08:02:13.331Z,1019
2017-03-26T08:03:14.578Z,1019.03
2017-03-26T08:04:15.827Z,1019.06
2017-03-26T08:05:17.079Z,1019.05
2017-03-26T08:06:18.328Z,1019.03
2017-03-26T08:07:19.568Z,1018.95
2017-03-26T08:08:20.838Z,1019.04
2017-03-26T08:09:22.103Z,1019
2017-03-26T08:10:23.342Z,1018.98
2017-03-26T08:11:24.589Z,1018.99
2017-03-26T08:12:25.894Z,1019.03
2017-03-26T08:13:27.149Z,1018.93
2017-03-26T08:14:28.382Z,1019.01
2017-03-26T08:15:29.647Z,1019
2017-03-26T08:16:30.867Z,1018.99
2017-03-26T08:17:32.319Z,1019
2017-03-26T08:18:33.666Z,1019
2017-03-26T08:19:34.845Z,1018.98
2017-03-26T08:20:36.189Z,1019.02
2017-03-26T08:21:37.463Z,1019
2017-03-26T08:22:38.731Z,1019
2017-03-26T08:23:39.972Z,1018.92
2017-03-26T08:24:41.214Z,1019.05
2017-03-26T08:25:42.517Z,1019.01
2017-03-26T08:26:43.786Z,1019.01
2017-03-26T08:27:45.009Z,1019.04
2017-03-26T08:28:46.258Z,1018.98
2017-03-26T08:29:47.537Z,1018.99
2017-03-26T08:30:48.897Z,1019.02
2017-03-26T08:31:50.195Z,1019.03
2017-03-26T08:32:51.446Z,1019.03
2017-03-26T08:33:52.711Z,1019
2017-03-26T08:34:53.964Z,1018.95
2017-03-26T08:35:55.211Z,1018.88
2017-03-26T08:36:56.470Z,1018.96
2017-03-26T08:37:57.779Z,1018.92
2017-03-26T08:38:59.127Z,1018.98
2017-03-26T08:40:00.384Z,1019.01
2017-03-26T08:41:01.644Z,1019.06
2017-03-26T08:42:02.914Z,1019.03
2017-03-26T08:43:04.156Z,1018.98
2017-03-26T08:44:05.408Z,1019.07
2017-03-26T08:45:06.661Z,1019.08
2017-03-26T08:46:07.914Z,1019.09
2017-03-26T08:47:09.189Z,1019.04
2017-03-26T08:48:10.462Z,1019
2017-03-26T08:49:11.762Z,1019.05
2017-03-26T08:50:13.177Z,1019.03
2017-03-26T08:51:14.323Z,1019.03
2017-03-26T08:52:15.568Z,1019.16
2017-03-26T08:53:16.815Z,1019.1
2017-03-26T08:54:18.095Z,1019.16
2017-03-26T08:55:19.370Z,1019.17
2017-03-26T08:56:20.614Z,1019.15
2017-03-26T08:57:21.863Z,1019.3
2017-03-26T08:58:23.112Z,1019.19
2017-03-26T08:59:24.361Z,1019.15
2017-03-26T09:00:25.651Z,1019.05
2017-03-26T09:01:26.885Z,1019.02
2017-03-26T09:02:28.237Z,1019.08
2017-03-26T09:03:29.572Z,1019.07
2017-03-26T09:04:30.817Z,1019.06
2017-03-26T09:05:32.077Z,1018.93
2017-03-26T09:06:33.323Z,1018.94
2017-03-26T09:07:34.612Z,1018.91
2017-03-26T09:08:35.932Z,1018.9
2017-03-26T09:09:37.284Z,1019.04
2017-03-26T09:10:38.524Z,1018.9
2017-03-26T09:11:39.780Z,1018.94
2017-03-26T09:12:41.029Z,1018.98
2017-03-26T09:13:42.400Z,1019.03
2017-03-26T09:14:43.642Z,1019.11
2017-03-26T09:15:44.894Z,1019.01
2017-03-26T09:16:46.151Z,1019.03
2017-03-26T09:17:47.470Z,1019.24
2017-03-26T09:18:48.737Z,1019.17
2017-03-26T09:19:50.007Z,1019.17
2017-03-26T09:20:51.301Z,1019.09
2017-03-26T09:21:52.560Z,1019.16
2017-03-26T09:22:53.795Z,1019.08
2017-03-26T09:23:55.044Z,1019.04
2017-03-26T09:24:56.302Z,1018.99
2017-03-26T09:25:57.636Z,1019.1
2017-03-26T09:26:58.899Z,1019.2
2017-03-26T09:28:00.148Z,1019.17
2017-03-26T09:29:01.417Z,1019.17
2017-03-26T09:30:02.686Z,1019.27
2017-03-26T09:31:03.947Z,1019.02
2017-03-26T09:32:05.206Z,1018.99
2017-03-26T09:33:06.567Z,1019.05
2017-03-26T09:34:07.828Z,1019.25
2017-03-26T09:35:09.090Z,1019.07
2017-03-26T09:36:10.323Z,1018.92
2017-03-26T09:37:11.602Z,1018.84
2017-03-26T09:38:12.858Z,1018.86
2017-03-26T09:39:14.109Z,1018.98
2017-03-26T09:40:15.420Z,1019.04
2017-03-26T09:41:16.708Z,1019.12
2017-03-26T09:42:17.928Z,1019.02
2017-03-26T09:43:19.199Z,1018.92
2017-03-26T09:44:20.605Z,1018.91
2017-03-26T09:45:21.973Z,1018.93
2017-03-26T09:46:23.237Z,1019.02
2017-03-26T09:47:24.498Z,1019.03
2017-03-26T09:48:25.798Z,1019
2017-03-26T09:49:27.011Z,1018.86
2017-03-26T09:50:28.377Z,1018.88
2017-03-26T09:51:29.662Z,1018.98
2017-03-26T09:52:30.909Z,1019.3
2017-03-26T09:53:32.149Z,1019.23
2017-03-26T09:54:33.452Z,1019.23
2017-03-26T09:55:34.725Z,1019.19
2017-03-26T09:56:35.959Z,1019.12
2017-03-26T09:57:37.273Z,1019.2
2017-03-26T09:58:38.517Z,1019.19
2017-03-26T09:59:39.751Z,1019.11
2017-03-26T10:00:40.998Z,1019.08
2017-03-26T10:01:42.298Z,1019.08
2017-03-26T10:02:43.554Z,1019.07
2017-03-26T10:03:44.789Z,1019.04
2017-03-26T10:04:46.068Z,1019.04
2017-03-26T10:05:47.316Z,1018.97
2017-03-26T10:06:48.721Z,1018.96
2017-03-26T10:07:50.111Z,1018.96
2017-03-26T10:08:51.375Z,1018.92
2017-03-26T10:09:52.672Z,1018.88
2017-03-26T10:10:53.913Z,1018.86
2017-03-26T10:11:55.202Z,1018.87
2017-03-26T10:12:56.443Z,1018.84
2017-03-26T10:13:57.714Z,1018.78
2017-03-26T10:14:58.984Z,1018.76
2017-03-26T10:16:00.209Z,1018.8
2017-03-26T10:17:01.522Z,1018.84
2017-03-26T10:18:02.756Z,1018.91
2017-03-26T10:19:04.090Z,1018.88
2017-03-26T10:20:05.449Z,1018.94
2017-03-26T10:21:06.593Z,1018.83
2017-03-26T10:22:07.860Z,1018.89
2017-03-26T10:23:09.108Z,1018.95
2017-03-26T10:24:10.459Z,1018.93
2017-03-26T10:25:11.836Z,1018.92
2017-03-26T10:26:13.011Z,1018.89
2017-03-26T10:27:14.295Z,1018.86
2017-03-26T10:28:15.549Z,1018.79
2017-03-26T10:29:16.793Z,1018.7
2017-03-26T10:30:18.080Z,1018.65
2017-03-26T10:31:19.350Z,1018.63
2017-03-26T10:32:20.602Z,1018.59
2017-03-26T10:33:21.889Z,1018.65
2017-03-26T10:34:23.124Z,1018.59
2017-03-26T10:35:24.380Z,1018.62
2017-03-26T10:36:25.642Z,1018.66
2017-03-26T10:37:26.923Z,1018.6
2017-03-26T10:38:28.209Z,1018.6
2017-03-26T10:39:29.446Z,1018.56
2017-03-26T10:40:30.701Z,1018.6
2017-03-26T10:41:31.961Z,1018.52
2017-03-26T10:42:33.207Z,1018.56
2017-03-26T10:43:34.516Z,1018.47
2017-03-26T10:44:35.852Z,1018.47
2017-03-26T10:45:37.100Z,1018.43
2017-03-26T10:46:38.352Z,1018.39
2017-03-26T10:47:39.610Z,1018.37
2017-03-26T10:48:40.889Z,1018.27
2017-03-26T10:49:42.122Z,1018.23
2017-03-26T10:50:43.379Z,1018.27
2017-03-26T10:51:44.642Z,1018.29
2017-03-26T10:52:45.897Z,1018.3
2017-03-26T10:53:47.144Z,1018.22
2017-03-26T10:54:48.416Z,1018.22
2017-03-26T10:55:49.672Z,1018.22
2017-03-26T10:56:50.993Z,1018.34
2017-03-26T10:57:52.248Z,1018.3
2017-03-26T10:58:53.623Z,1018.21
2017-03-26T10:59:54.883Z,1018.23
2017-03-26T11:00:56.139Z,1018.22
2017-03-26T11:01:57.403Z,1018.21
2017-03-26T11:02:58.779Z,1018.16
2017-03-26T11:04:00.046Z,1018.09
2017-03-26T11:05:01.269Z,1018.11
2017-03-26T11:06:02.514Z,1018.17
2017-03-26T11:07:03.769Z,1018.16
2017-03-26T11:08:05.014Z,1018.18
2017-03-26T11:09:06.583Z,1018.13
2017-03-26T11:10:07.863Z,1018.14
2017-03-26T11:11:09.099Z,1018.12
2017-03-26T11:12:10.362Z,1018.08
2017-03-26T11:13:11.607Z,1018.06
2017-03-26T11:14:12.940Z,1018.09
2017-03-26T11:15:14.244Z,1018.06
2017-03-26T11:16:15.539Z,1018.11
2017-03-26T11:17:16.766Z,1018.1
2017-03-26T11:18:18.012Z,1018.07
2017-03-26T11:19:19.272Z,1018.12
2017-03-26T11:20:20.527Z,1018.12
2017-03-26T11:21:21.784Z,1018.02
2017-03-26T11:22:23.180Z,1018.03
2017-03-26T11:23:24.378Z,1018.01
2017-03-26T11:24:25.660Z,1018.06
2017-03-26T11:25:26.956Z,1018.09
2017-03-26T11:26:28.218Z,1018.15
2017-03-26T11:27:29.538Z,1018.04
2017-03-26T11:28:30.787Z,1018.02
2017-03-26T11:29:32.062Z,1017.97
2017-03-26T11:30:33.299Z,1018.01
2017-03-26T11:31:34.554Z,1017.98
2017-03-26T11:32:35.801Z,1017.94
2017-03-26T11:33:37.058Z,1017.96
2017-03-26T11:34:38.350Z,1017.92
2017-03-26T11:35:39.670Z,1017.93
2017-03-26T11:36:40.930Z,1017.91
2017-03-26T11:37:42.149Z,1017.89
2017-03-26T11:38:43.387Z,1017.92
2017-03-26T11:39:44.690Z,1017.97
2017-03-26T11:40:45.939Z,1017.93
2017-03-26T11:41:47.180Z,1017.88
2017-03-26T11:42:48.425Z,1017.89
2017-03-26T11:43:49.658Z,1017.88
2017-03-26T11:44:51.051Z,1017.86
2017-03-26T11:45:52.346Z,1017.85
2017-03-26T11:46:53.605Z,1017.87
2017-03-26T11:47:54.840Z,1017.88
2017-03-26T11:48:56.078Z,1017.88
2017-03-26T11:49:57.333Z,1017.88
2017-03-26T11:50:58.650Z,1017.94
2017-03-26T11:51:59.928Z,1017.85
2017-03-26T11:53:01.297Z,1017.92
2017-03-26T11:54:02.504Z,1017.88
2017-03-26T11:55:03.749Z,1017.9
2017-03-26T11:56:05.013Z,1017.86
2017-03-26T11:57:06.245Z,1017.82
2017-03-26T11:58:07.581Z,1017.85
2017-03-26T11:59:08.802Z,1017.88
2017-03-26T12:00:10.047Z,1017.81
2017-03-26T12:01:11.289Z,1017.85
2017-03-26T12:02:12.601Z,1017.83
2017-03-26T12:03:13.928Z,1017.78
2017-03-26T12:04:15.106Z,1017.76
2017-03-26T12:05:16.396Z,1017.77
2017-03-26T12:06:17.625Z,1017.82
2017-03-26T12:07:18.862Z,1017.82
2017-03-26T12:08:20.110Z,1017.75
2017-03-26T12:09:21.349Z,1017.84
2017-03-26T12:10:22.601Z,1017.77
2017-03-26T12:11:23.954Z,1017.85
2017-03-26T12:12:25.221Z,1017.86
2017-03-26T12:13:26.446Z,1017.83
2017-03-26T12:14:27.719Z,1017.77
2017-03-26T12:15:28.940Z,1017.77
2017-03-26T12:16:30.214Z,1017.73
2017-03-26T12:17:31.546Z,1017.69
2017-03-26T12:18:32.727Z,1017.8
2017-03-26T12:19:33.968Z,1017.67
2017-03-26T12:20:35.203Z,1017.69
2017-03-26T12:21:36.442Z,1017.69
2017-03-26T12:22:37.762Z,1017.7
2017-03-26T12:23:38.930Z,1017.7
2017-03-26T12:24:40.318Z,1017.65